Tuesday, January 15, 2019, 6:27 PM EST
Back to Local

KBAF, Westfield Barnes Municipal

Location: Westfield, MA, United States Lat: 42.167
Local Time: 6:27 PM EST (23:27 GMT) Lon: -72.717
Time Zone: US/Eastern Elev: 272 ft

Show me the last for .
Show Decoded

2019-01-15 17:53 METAR KBAF 152253Z 29005KT 10SM BKN035 M01/M08 A3009 RMK AO2 SLP197 T10111078 =
2019-01-15 16:53 METAR KBAF 152153Z 31004KT 10SM CLR M01/M08 A3007 RMK AO2 SLP193 T10111083 =
2019-01-15 15:53 METAR KBAF 152053Z 30006KT 10SM CLR 01/M08 A3007 RMK AO2 SLP192 T00111083 56004
                 =
2019-01-15 14:53 METAR KBAF 151953Z 29005KT 10SM CLR 01/M09 A3008 RMK AO2 SLP193 T00111089 =
2019-01-15 13:53 METAR KBAF 151853Z 32007KT 270V350 10SM CLR 02/M09 A3007 RMK AO2 SLP190
                 T00171089 =
2019-01-15 12:53 METAR KBAF 151753Z VRB04KT 10SM CLR 01/M10 A3008 RMK AO2 SLP195 T00061100 10006
                 21133 58021 =
2019-01-15 11:53 METAR KBAF 151653Z 00000KT 10SM CLR M01/M10 A3011 RMK AO2 SLP203 T10111100 =
2019-01-15 10:53 METAR KBAF 151553Z 06004KT 10SM CLR M03/M11 A3014 RMK AO2 SLP215 T10281106 =
2019-01-15 09:53 METAR KBAF 151453Z 08003KT 10SM CLR M06/M11 A3015 RMK AO2 SLP217 T10561111 53021
                 =
2019-01-15 08:53 METAR KBAF 151353Z 34004KT 10SM CLR M08/M12 A3012 RMK AO2 SLP210 T10781117 =
2019-01-15 07:53 METAR KBAF 151253Z 36006KT 10SM CLR M09/M13 A3010 RMK AO2 SLP201 T10941128 =
2019-01-15 06:53 METAR KBAF 151153Z 36004KT 10SM CLR M12/M14 A3008 RMK AO2 SLP198 I1000 I6000
                 T11221144 11100 21128 53004 $ =
2019-01-15 05:53 METAR KBAF 151053Z AUTO 00000KT 10SM CLR M12/M15 A3008 RMK AO2 SLP195 I1000
                 T11221150 $ =
2019-01-15 04:53 METAR KBAF 150953Z AUTO 00000KT 10SM CLR M12/M14 A3007 RMK AO2 SLP190 I1000
                 T11171144 $ =
2019-01-15 03:53 METAR KBAF 150853Z AUTO 00000KT 10SM CLR M12/M14 A3007 RMK AO2 SLP193 I1000
                 I3/// T11171139 $ =
2019-01-15 02:53 METAR KBAF 150753Z AUTO 02003KT 10SM CLR M11/M13 A3008 RMK AO2 SLP193 I1000
                 T11061133 $ =
2019-01-15 01:53 METAR KBAF 150653Z AUTO 00000KT 10SM CLR M11/M13 A3008 RMK AO2 SLP195 I1///
                 T11061128 $ =
2019-01-15 00:53 METAR KBAF 150553Z AUTO 00000KT 10SM CLR M10/M12 A3008 RMK AO2 SLP195 T11001122
                 11056 21106 58011 =
2019-01-14 23:53 METAR KBAF 150453Z AUTO 00000KT 10SM CLR M09/M12 A3009 RMK AO2 SLP200 T10941117
                 400061128 =
2019-01-14 22:53 METAR KBAF 150353Z AUTO 00000KT 10SM CLR M08/M11 A3011 RMK AO2 SLP205 T10831111
                 =
2019-01-14 21:53 METAR KBAF 150253Z 36003KT 10SM CLR M08/M11 A3011 RMK AO2 SLP206 T10781111 55001
                 =
2019-01-14 20:53 METAR KBAF 150153Z 01003KT 10SM CLR M07/M11 A3011 RMK AO2 SLP206 T10671111 =
2019-01-14 19:53 METAR KBAF 150053Z 00000KT 10SM CLR M06/M12 A3010 RMK AO2 SLP204 T10611117 =
2019-01-14 18:53 METAR KBAF 142353Z 00000KT 10SM CLR M06/M12 A3012 RMK AO2 SLP208 T10561117 10006
                 21056 58006 =

Support USWX by starting your Amazon purchase here.